sensor_id;sensor_type;location;lat;lon;timestamp;pressure;altitude;pressure_sealevel;temperature;humidity
43153;BME280;28756;49.064;9.290;2022-08-01T00:00:35;99021.97;;;16.90;69.88
43153;BME280;28756;49.064;9.290;2022-08-01T00:03:01;99019.34;;;16.90;69.37
43153;BME280;28756;49.064;9.290;2022-08-01T00:05:26;99021.97;;;16.90;69.46
43153;BME280;28756;49.064;9.290;2022-08-01T00:07:53;99010.31;;;16.95;69.65
43153;BME280;28756;49.064;9.290;2022-08-01T00:10:19;99014.66;;;17.05;68.66
43153;BME280;28756;49.064;9.290;2022-08-01T00:12:48;99012.53;;;17.20;67.90
43153;BME280;28756;49.064;9.290;2022-08-01T00:15:16;99012.63;;;17.30;67.32
43153;BME280;28756;49.064;9.290;2022-08-01T00:17:43;99015.69;;;17.35;67.17
43153;BME280;28756;49.064;9.290;2022-08-01T00:20:13;99019.03;;;17.38;67.86
43153;BME280;28756;49.064;9.290;2022-08-01T00:22:39;99008.56;;;17.47;66.52
43153;BME280;28756;49.064;9.290;2022-08-01T00:25:06;99015.63;;;17.47;66.71
43153;BME280;28756;49.064;9.290;2022-08-01T00:27:32;99011.78;;;17.51;66.64
43153;BME280;28756;49.064;9.290;2022-08-01T00:29:58;99016.59;;;17.46;68.06
43153;BME280;28756;49.064;9.290;2022-08-01T00:32:24;99021.97;;;17.44;66.84
43153;BME280;28756;49.064;9.290;2022-08-01T00:34:50;99024.16;;;17.39;67.16
43153;BME280;28756;49.064;9.290;2022-08-01T00:37:16;99020.56;;;17.40;67.46
43153;BME280;28756;49.064;9.290;2022-08-01T00:39:42;99025.00;;;17.40;67.21
43153;BME280;28756;49.064;9.290;2022-08-01T00:42:10;99022.56;;;17.27;68.37
43153;BME280;28756;49.064;9.290;2022-08-01T00:44:36;99025.19;;;17.27;68.19
43153;BME280;28756;49.064;9.290;2022-08-01T00:47:04;99026.97;;;17.26;68.61
43153;BME280;28756;49.064;9.290;2022-08-01T00:49:30;99022.66;;;17.25;68.15
43153;BME280;28756;49.064;9.290;2022-08-01T00:51:56;99021.72;;;17.26;68.17
43153;BME280;28756;49.064;9.290;2022-08-01T00:54:25;99026.38;;;17.23;68.01
43153;BME280;28756;49.064;9.290;2022-08-01T00:56:51;99032.75;;;17.20;68.96
43153;BME280;28756;49.064;9.290;2022-08-01T00:59:17;99030.25;;;17.40;68.24
43153;BME280;28756;49.064;9.290;2022-08-01T01:01:44;99036.09;;;17.43;67.50
43153;BME280;28756;49.064;9.290;2022-08-01T01:04:10;99029.84;;;17.44;68.23
43153;BME280;28756;49.064;9.290;2022-08-01T01:12:36;99038.16;;;17.40;68.22
43153;BME280;28756;49.064;9.290;2022-08-01T01:18:04;99038.00;;;17.41;68.15
43153;BME280;28756;49.064;9.290;2022-08-01T01:20:38;99042.97;;;17.44;68.02
43153;BME280;28756;49.064;9.290;2022-08-01T01:29:27;99041.25;;;17.76;66.92
43153;BME280;28756;49.064;9.290;2022-08-01T01:32:09;99037.78;;;17.75;67.05
43153;BME280;28756;49.064;9.290;2022-08-01T01:34:43;99037.66;;;17.77;67.37
43153;BME280;28756;49.064;9.290;2022-08-01T01:37:21;99038.84;;;17.73;67.80
43153;BME280;28756;49.064;9.290;2022-08-01T01:39:50;99046.38;;;17.56;68.07
43153;BME280;28756;49.064;9.290;2022-08-01T01:42:18;99048.75;;;17.38;68.95
43153;BME280;28756;49.064;9.290;2022-08-01T01:44:46;99044.53;;;17.26;70.22
43153;BME280;28756;49.064;9.290;2022-08-01T01:47:14;99045.69;;;17.54;68.61
43153;BME280;28756;49.064;9.290;2022-08-01T01:49:41;99041.72;;;17.60;68.33
43153;BME280;28756;49.064;9.290;2022-08-01T01:52:09;99051.91;;;17.74;68.49
43153;BME280;28756;49.064;9.290;2022-08-01T01:54:42;99039.97;;;17.70;67.86
43153;BME280;28756;49.064;9.290;2022-08-01T01:57:12;99051.00;;;17.64;68.37
43153;BME280;28756;49.064;9.290;2022-08-01T01:59:41;99062.91;;;17.68;68.33
43153;BME280;28756;49.064;9.290;2022-08-01T02:02:09;99050.94;;;17.75;68.15
43153;BME280;28756;49.064;9.290;2022-08-01T02:04:40;99055.88;;;17.68;68.97
43153;BME280;28756;49.064;9.290;2022-08-01T02:07:12;99054.72;;;17.61;69.29
43153;BME280;28756;49.064;9.290;2022-08-01T02:09:41;99048.31;;;17.54;69.76
43153;BME280;28756;49.064;9.290;2022-08-01T02:12:10;99055.84;;;17.59;69.47
43153;BME280;28756;49.064;9.290;2022-08-01T02:14:37;99052.06;;;17.51;70.46
43153;BME280;28756;49.064;9.290;2022-08-01T02:17:05;99064.22;;;17.52;69.79
43153;BME280;28756;49.064;9.290;2022-08-01T02:19:35;99065.81;;;17.44;70.05
43153;BME280;28756;49.064;9.290;2022-08-01T02:22:10;99072.69;;;17.35;70.21
43153;BME280;28756;49.064;9.290;2022-08-01T02:27:30;99072.50;;;17.27;70.85
43153;BME280;28756;49.064;9.290;2022-08-01T02:30:05;99065.00;;;17.22;71.36
43153;BME280;28756;49.064;9.290;2022-08-01T02:32:37;99071.81;;;17.13;72.06
43153;BME280;28756;49.064;9.290;2022-08-01T02:35:07;99081.16;;;17.06;72.22
43153;BME280;28756;49.064;9.290;2022-08-01T02:37:38;99076.56;;;16.98;72.00
43153;BME280;28756;49.064;9.290;2022-08-01T02:40:06;99072.63;;;16.93;73.57
43153;BME280;28756;49.064;9.290;2022-08-01T02:42:35;99078.09;;;16.89;72.56
43153;BME280;28756;49.064;9.290;2022-08-01T02:45:04;99071.75;;;17.03;73.38
43153;BME280;28756;49.064;9.290;2022-08-01T02:47:33;99067.66;;;17.11;72.94
43153;BME280;28756;49.064;9.290;2022-08-01T02:49:59;99076.63;;;17.08;72.95
43153;BME280;28756;49.064;9.290;2022-08-01T02:52:26;99071.03;;;17.55;71.16
43153;BME280;28756;49.064;9.290;2022-08-01T02:54:56;99068.06;;;17.70;70.64
43153;BME280;28756;49.064;9.290;2022-08-01T02:57:23;99074.03;;;17.50;71.90
43153;BME280;28756;49.064;9.290;2022-08-01T02:59:50;99076.00;;;17.58;71.14
43153;BME280;28756;49.064;9.290;2022-08-01T03:02:17;99074.94;;;17.40;72.74
43153;BME280;28756;49.064;9.290;2022-08-01T03:04:45;99072.50;;;17.27;72.78
43153;BME280;28756;49.064;9.290;2022-08-01T03:07:13;99074.53;;;17.23;72.87
43153;BME280;28756;49.064;9.290;2022-08-01T03:09:42;99073.25;;;17.17;73.35
43153;BME280;28756;49.064;9.290;2022-08-01T03:12:17;99074.00;;;17.08;74.15
43153;BME280;28756;49.064;9.290;2022-08-01T03:14:45;99073.22;;;16.96;74.24
43153;BME280;28756;49.064;9.290;2022-08-01T03:17:13;99077.97;;;16.91;74.53
43153;BME280;28756;49.064;9.290;2022-08-01T03:19:41;99083.13;;;16.81;74.84
43153;BME280;28756;49.064;9.290;2022-08-01T03:22:09;99078.16;;;16.67;75.63
43153;BME280;28756;49.064;9.290;2022-08-01T03:24:39;99081.38;;;16.70;75.96
43153;BME280;28756;49.064;9.290;2022-08-01T03:27:06;99080.66;;;16.68;75.59
43153;BME280;28756;49.064;9.290;2022-08-01T03:29:34;99084.34;;;16.66;75.38
43153;BME280;28756;49.064;9.290;2022-08-01T03:32:02;99081.63;;;16.56;75.72
43153;BME280;28756;49.064;9.290;2022-08-01T03:34:30;99089.66;;;16.43;76.97
43153;BME280;28756;49.064;9.290;2022-08-01T03:37:12;99086.56;;;16.38;76.67
43153;BME280;28756;49.064;9.290;2022-08-01T03:39:58;99085.13;;;16.34;77.41
43153;BME280;28756;49.064;9.290;2022-08-01T03:42:35;99094.69;;;16.23;76.67
43153;BME280;28756;49.064;9.290;2022-08-01T03:45:07;99097.78;;;16.17;77.44
43153;BME280;28756;49.064;9.290;2022-08-01T03:47:35;99094.06;;;16.08;78.55
43153;BME280;28756;49.064;9.290;2022-08-01T03:50:06;99103.38;;;16.01;78.48
43153;BME280;28756;49.064;9.290;2022-08-01T03:52:35;99096.44;;;16.00;79.26
43153;BME280;28756;49.064;9.290;2022-08-01T03:55:06;99097.75;;;15.94;79.67
43153;BME280;28756;49.064;9.290;2022-08-01T03:57:32;99097.53;;;15.98;80.41
43153;BME280;28756;49.064;9.290;2022-08-01T03:59:59;99098.72;;;15.93;79.45
43153;BME280;28756;49.064;9.290;2022-08-01T04:02:27;99104.41;;;15.87;79.42
43153;BME280;28756;49.064;9.290;2022-08-01T04:04:54;99100.25;;;15.85;80.07
43153;BME280;28756;49.064;9.290;2022-08-01T04:07:29;99097.84;;;15.82;80.41
43153;BME280;28756;49.064;9.290;2022-08-01T04:09:55;99102.50;;;15.78;80.31
43153;BME280;28756;49.064;9.290;2022-08-01T04:12:22;99107.75;;;15.78;80.31
43153;BME280;28756;49.064;9.290;2022-08-01T04:14:48;99106.28;;;15.74;80.47
43153;BME280;28756;49.064;9.290;2022-08-01T04:17:15;99103.19;;;15.69;80.57
43153;BME280;28756;49.064;9.290;2022-08-01T04:19:42;99103.66;;;15.62;80.71
43153;BME280;28756;49.064;9.290;2022-08-01T04:22:10;99108.38;;;15.57;80.92
43153;BME280;28756;49.064;9.290;2022-08-01T04:24:37;99108.72;;;15.53;81.29
43153;BME280;28756;49.064;9.290;2022-08-01T04:27:08;99109.81;;;15.50;81.40
43153;BME280;28756;49.064;9.290;2022-08-01T04:29:36;99117.78;;;15.48;83.20
43153;BME280;28756;49.064;9.290;2022-08-01T04:32:05;99114.56;;;15.45;82.58
43153;BME280;28756;49.064;9.290;2022-08-01T04:34:33;99111.94;;;15.45;82.09
43153;BME280;28756;49.064;9.290;2022-08-01T04:37:00;99125.03;;;15.45;82.53
43153;BME280;28756;49.064;9.290;2022-08-01T04:39:31;99115.91;;;15.51;82.35
43153;BME280;28756;49.064;9.290;2022-08-01T04:41:59;99122.50;;;15.43;82.45
43153;BME280;28756;49.064;9.290;2022-08-01T04:44:29;99116.94;;;15.48;82.06
43153;BME280;28756;49.064;9.290;2022-08-01T04:47:00;99117.19;;;15.56;82.41
43153;BME280;28756;49.064;9.290;2022-08-01T04:49:31;99115.56;;;15.67;82.13
43153;BME280;28756;49.064;9.290;2022-08-01T04:51:58;99111.41;;;15.75;81.97
43153;BME280;28756;49.064;9.290;2022-08-01T04:54:29;99117.66;;;15.86;81.86
43153;BME280;28756;49.064;9.290;2022-08-01T04:56:56;99110.03;;;15.94;81.15
43153;BME280;28756;49.064;9.290;2022-08-01T04:59:29;99111.63;;;16.08;80.95
43153;BME280;28756;49.064;9.290;2022-08-01T05:02:15;99120.69;;;16.15;80.49
43153;BME280;28756;49.064;9.290;2022-08-01T05:04:42;99126.41;;;16.20;81.09
43153;BME280;28756;49.064;9.290;2022-08-01T05:07:09;99116.59;;;16.34;79.91
43153;BME280;28756;49.064;9.290;2022-08-01T05:09:36;99122.09;;;16.53;79.62
43153;BME280;28756;49.064;9.290;2022-08-01T05:12:05;99114.53;;;16.71;79.87
43153;BME280;28756;49.064;9.290;2022-08-01T05:14:32;99119.16;;;17.02;78.52
43153;BME280;28756;49.064;9.290;2022-08-01T05:17:03;99110.97;;;17.28;77.68
43153;BME280;28756;49.064;9.290;2022-08-01T05:19:34;99114.63;;;17.58;76.37
43153;BME280;28756;49.064;9.290;2022-08-01T05:22:01;99113.97;;;17.65;75.98
43153;BME280;28756;49.064;9.290;2022-08-01T05:24:31;99106.41;;;18.14;75.31
43153;BME280;28756;49.064;9.290;2022-08-01T05:26:57;99104.41;;;18.47;73.47
43153;BME280;28756;49.064;9.290;2022-08-01T05:29:23;99111.44;;;18.88;71.50
43153;BME280;28756;49.064;9.290;2022-08-01T05:31:50;99107.06;;;19.18;71.09
43153;BME280;28756;49.064;9.290;2022-08-01T05:34:16;99106.75;;;19.60;69.08
43153;BME280;28756;49.064;9.290;2022-08-01T05:36:42;99106.47;;;19.73;68.14
43153;BME280;28756;49.064;9.290;2022-08-01T05:39:08;99106.03;;;19.78;68.04
43153;BME280;28756;49.064;9.290;2022-08-01T05:41:35;99110.66;;;20.51;66.13
43153;BME280;28756;49.064;9.290;2022-08-01T05:44:02;99100.16;;;20.87;65.13
43153;BME280;28756;49.064;9.290;2022-08-01T05:46:28;99104.38;;;21.52;62.69
43153;BME280;28756;49.064;9.290;2022-08-01T05:48:57;99103.41;;;22.06;61.04
43153;BME280;28756;49.064;9.290;2022-08-01T05:51:23;99096.59;;;22.73;58.43
43153;BME280;28756;49.064;9.290;2022-08-01T05:53:48;99091.81;;;22.84;58.75
43153;BME280;28756;49.064;9.290;2022-08-01T05:56:14;99092.28;;;22.29;60.29
43153;BME280;28756;49.064;9.290;2022-08-01T05:58:40;99096.06;;;22.61;58.57
43153;BME280;28756;49.064;9.290;2022-08-01T06:01:06;99096.19;;;22.16;62.02
43153;BME280;28756;49.064;9.290;2022-08-01T06:03:32;99091.78;;;22.76;60.70
43153;BME280;28756;49.064;9.290;2022-08-01T06:06:01;99092.88;;;22.49;60.60
43153;BME280;28756;49.064;9.290;2022-08-01T06:08:27;99103.53;;;22.65;59.91
43153;BME280;28756;49.064;9.290;2022-08-01T06:10:53;99102.84;;;22.63;60.23
43153;BME280;28756;49.064;9.290;2022-08-01T06:13:18;99105.97;;;23.43;57.54
43153;BME280;28756;49.064;9.290;2022-08-01T06:15:46;99098.69;;;23.37;57.93
43153;BME280;28756;49.064;9.290;2022-08-01T06:18:12;99100.59;;;24.01;56.43
43153;BME280;28756;49.064;9.290;2022-08-01T06:20:38;99096.69;;;24.68;55.47
43153;BME280;28756;49.064;9.290;2022-08-01T06:23:04;99103.41;;;22.92;58.65
43153;BME280;28756;49.064;9.290;2022-08-01T06:25:30;99106.75;;;22.94;59.10
43153;BME280;28756;49.064;9.290;2022-08-01T06:27:56;99093.00;;;22.98;58.94
43153;BME280;28756;49.064;9.290;2022-08-01T06:30:22;99098.97;;;22.92;58.81
43153;BME280;28756;49.064;9.290;2022-08-01T06:32:48;99101.94;;;22.97;59.14
43153;BME280;28756;49.064;9.290;2022-08-01T06:35:17;99100.47;;;23.61;56.58
43153;BME280;28756;49.064;9.290;2022-08-01T06:37:43;99094.63;;;23.99;55.58
43153;BME280;28756;49.064;9.290;2022-08-01T06:40:11;99097.84;;;23.20;57.95
43153;BME280;28756;49.064;9.290;2022-08-01T06:42:37;99094.03;;;23.39;57.13
43153;BME280;28756;49.064;9.290;2022-08-01T06:45:04;99089.19;;;23.75;57.01
43153;BME280;28756;49.064;9.290;2022-08-01T06:47:31;99096.34;;;23.33;57.51
43153;BME280;28756;49.064;9.290;2022-08-01T06:49:57;99099.31;;;23.06;58.75
43153;BME280;28756;49.064;9.290;2022-08-01T06:52:22;99104.59;;;23.06;57.48
43153;BME280;28756;49.064;9.290;2022-08-01T06:54:48;99104.66;;;23.30;57.23
43153;BME280;28756;49.064;9.290;2022-08-01T06:57:14;99105.75;;;22.86;59.15
43153;BME280;28756;49.064;9.290;2022-08-01T06:59:40;99113.13;;;22.66;59.14
43153;BME280;28756;49.064;9.290;2022-08-01T07:02:06;99121.78;;;22.07;60.95
43153;BME280;28756;49.064;9.290;2022-08-01T07:04:33;99117.00;;;22.11;61.33
43153;BME280;28756;49.064;9.290;2022-08-01T07:06:59;99116.75;;;22.22;61.04
43153;BME280;28756;49.064;9.290;2022-08-01T07:09:25;99116.38;;;22.44;60.73
43153;BME280;28756;49.064;9.290;2022-08-01T07:11:51;99118.53;;;22.40;60.61
43153;BME280;28756;49.064;9.290;2022-08-01T07:14:18;99115.59;;;22.25;61.44
43153;BME280;28756;49.064;9.290;2022-08-01T07:16:44;99112.44;;;22.56;60.51
43153;BME280;28756;49.064;9.290;2022-08-01T07:19:10;99107.09;;;23.07;59.09
43153;BME280;28756;49.064;9.290;2022-08-01T07:21:36;99105.09;;;23.09;58.98
43153;BME280;28756;49.064;9.290;2022-08-01T07:24:03;99108.34;;;22.70;59.25
43153;BME280;28756;49.064;9.290;2022-08-01T07:26:29;99110.09;;;23.21;58.41
43153;BME280;28756;49.064;9.290;2022-08-01T07:28:54;99105.47;;;23.39;57.29
43153;BME280;28756;49.064;9.290;2022-08-01T07:31:20;99101.31;;;23.70;57.38
43153;BME280;28756;49.064;9.290;2022-08-01T07:33:46;99091.53;;;24.66;54.73
43153;BME280;28756;49.064;9.290;2022-08-01T07:36:12;99098.44;;;23.88;55.49
43153;BME280;28756;49.064;9.290;2022-08-01T07:38:37;99102.59;;;23.99;54.72
43153;BME280;28756;49.064;9.290;2022-08-01T07:41:03;99093.44;;;23.93;55.76
43153;BME280;28756;49.064;9.290;2022-08-01T07:43:29;99084.06;;;24.30;54.30
43153;BME280;28756;49.064;9.290;2022-08-01T07:45:55;99089.34;;;24.38;53.40
43153;BME280;28756;49.064;9.290;2022-08-01T07:48:20;99085.59;;;24.56;53.50
43153;BME280;28756;49.064;9.290;2022-08-01T07:50:50;99086.72;;;24.70;53.92
43153;BME280;28756;49.064;9.290;2022-08-01T07:53:16;99085.72;;;24.63;54.47
43153;BME280;28756;49.064;9.290;2022-08-01T07:55:42;99089.59;;;24.12;54.64
43153;BME280;28756;49.064;9.290;2022-08-01T07:58:08;99089.00;;;24.41;54.42
43153;BME280;28756;49.064;9.290;2022-08-01T08:00:34;99089.47;;;24.05;55.20
43153;BME280;28756;49.064;9.290;2022-08-01T08:02:59;99085.03;;;24.37;53.67
43153;BME280;28756;49.064;9.290;2022-08-01T08:05:28;99084.72;;;25.42;51.97
43153;BME280;28756;49.064;9.290;2022-08-01T08:07:54;99087.31;;;24.80;52.03
43153;BME280;28756;49.064;9.290;2022-08-01T08:10:20;99093.28;;;24.11;53.80
43153;BME280;28756;49.064;9.290;2022-08-01T08:12:46;99087.19;;;24.73;51.98
43153;BME280;28756;49.064;9.290;2022-08-01T08:15:12;99078.53;;;25.03;52.05
43153;BME280;28756;49.064;9.290;2022-08-01T08:17:39;99089.94;;;24.49;52.91
43153;BME280;28756;49.064;9.290;2022-08-01T08:20:06;99086.13;;;25.67;51.12
43153;BME280;28756;49.064;9.290;2022-08-01T08:22:33;99080.09;;;25.74;52.43
43153;BME280;28756;49.064;9.290;2022-08-01T08:24:59;99071.97;;;26.20;49.53
43153;BME280;28756;49.064;9.290;2022-08-01T08:27:25;99071.34;;;25.03;51.20
43153;BME280;28756;49.064;9.290;2022-08-01T08:29:51;99068.81;;;26.31;48.43
43153;BME280;28756;49.064;9.290;2022-08-01T08:32:17;99061.47;;;26.92;46.38
43153;BME280;28756;49.064;9.290;2022-08-01T08:34:43;99073.81;;;25.28;49.45
43153;BME280;28756;49.064;9.290;2022-08-01T08:37:09;99076.88;;;25.63;49.24
43153;BME280;28756;49.064;9.290;2022-08-01T08:39:36;99076.91;;;25.40;50.31
43153;BME280;28756;49.064;9.290;2022-08-01T08:42:06;99072.91;;;24.98;50.51
43153;BME280;28756;49.064;9.290;2022-08-01T08:44:32;99072.00;;;24.82;52.05
43153;BME280;28756;49.064;9.290;2022-08-01T08:47:01;99073.13;;;25.11;51.69
43153;BME280;28756;49.064;9.290;2022-08-01T08:49:30;99056.47;;;26.45;48.60
43153;BME280;28756;49.064;9.290;2022-08-01T08:52:00;99063.66;;;25.85;48.72
43153;BME280;28756;49.064;9.290;2022-08-01T08:54:27;99063.41;;;26.10;47.51
43153;BME280;28756;49.064;9.290;2022-08-01T08:56:55;99074.94;;;24.33;51.07
43153;BME280;28756;49.064;9.290;2022-08-01T08:59:22;99062.41;;;24.81;50.07
43153;BME280;28756;49.064;9.290;2022-08-01T09:01:51;99061.66;;;24.56;51.41
43153;BME280;28756;49.064;9.290;2022-08-01T09:04:17;99058.88;;;24.81;50.37
43153;BME280;28756;49.064;9.290;2022-08-01T09:06:43;99066.63;;;24.27;52.14
43153;BME280;28756;49.064;9.290;2022-08-01T09:09:09;99065.97;;;24.34;52.02
43153;BME280;28756;49.064;9.290;2022-08-01T09:11:37;99074.47;;;24.52;51.56
43153;BME280;28756;49.064;9.290;2022-08-01T09:16:42;99075.19;;;24.46;51.85
43153;BME280;28756;49.064;9.290;2022-08-01T09:19:18;99079.81;;;24.84;51.48
43153;BME280;28756;49.064;9.290;2022-08-01T09:22:06;99078.69;;;24.78;51.31
43153;BME280;28756;49.064;9.290;2022-08-01T09:24:33;99082.25;;;25.40;51.14
43153;BME280;28756;49.064;9.290;2022-08-01T09:27:01;99071.94;;;25.75;49.49
43153;BME280;28756;49.064;9.290;2022-08-01T09:29:30;99081.28;;;24.55;50.95
43153;BME280;28756;49.064;9.290;2022-08-01T09:31:57;99077.53;;;25.04;51.10
43153;BME280;28756;49.064;9.290;2022-08-01T09:34:34;99086.47;;;25.49;49.80
43153;BME280;28756;49.064;9.290;2022-08-01T09:37:02;99072.56;;;26.22;47.67
43153;BME280;28756;49.064;9.290;2022-08-01T09:39:36;99056.00;;;27.22;46.01
43153;BME280;28756;49.064;9.290;2022-08-01T09:42:23;99071.91;;;25.60;48.20
43153;BME280;28756;49.064;9.290;2022-08-01T09:44:49;99074.88;;;25.04;49.87
43153;BME280;28756;49.064;9.290;2022-08-01T09:47:15;99073.00;;;25.66;47.91
43153;BME280;28756;49.064;9.290;2022-08-01T09:49:43;99071.72;;;25.47;48.41
43153;BME280;28756;49.064;9.290;2022-08-01T09:52:21;99073.88;;;25.20;49.17
43153;BME280;28756;49.064;9.290;2022-08-01T09:55:07;99067.72;;;26.77;46.91
43153;BME280;28756;49.064;9.290;2022-08-01T09:57:36;99064.34;;;27.62;44.19
43153;BME280;28756;49.064;9.290;2022-08-01T10:00:04;99063.22;;;27.85;43.55
43153;BME280;28756;49.064;9.290;2022-08-01T10:02:39;99059.50;;;28.14;43.65
43153;BME280;28756;49.064;9.290;2022-08-01T10:05:09;99052.06;;;27.74;44.50
43153;BME280;28756;49.064;9.290;2022-08-01T10:07:54;99054.59;;;27.48;44.84
43153;BME280;28756;49.064;9.290;2022-08-01T10:10:20;99056.59;;;26.22;46.26
43153;BME280;28756;49.064;9.290;2022-08-01T10:12:47;99065.38;;;26.38;47.69
43153;BME280;28756;49.064;9.290;2022-08-01T10:15:15;99052.84;;;26.90;45.11
43153;BME280;28756;49.064;9.290;2022-08-01T10:18:01;99054.47;;;27.13;45.87
43153;BME280;28756;49.064;9.290;2022-08-01T10:20:32;99058.13;;;26.68;46.17
43153;BME280;28756;49.064;9.290;2022-08-01T10:23:01;99057.50;;;25.99;46.66
43153;BME280;28756;49.064;9.290;2022-08-01T10:25:34;99047.94;;;26.93;46.06
43153;BME280;28756;49.064;9.290;2022-08-01T10:28:17;99059.59;;;25.59;47.58
43153;BME280;28756;49.064;9.290;2022-08-01T10:30:44;99042.59;;;26.35;46.43
43153;BME280;28756;49.064;9.290;2022-08-01T10:33:11;99041.94;;;27.35;44.19
43153;BME280;28756;49.064;9.290;2022-08-01T10:35:39;99049.25;;;26.61;45.23
43153;BME280;28756;49.064;9.290;2022-08-01T10:38:05;99053.09;;;25.92;46.30
43153;BME280;28756;49.064;9.290;2022-08-01T10:40:32;99050.25;;;25.93;46.87
43153;BME280;28756;49.064;9.290;2022-08-01T10:42:58;99044.34;;;26.64;45.11
43153;BME280;28756;49.064;9.290;2022-08-01T10:45:24;99035.38;;;28.01;43.90
43153;BME280;28756;49.064;9.290;2022-08-01T10:48:20;99036.63;;;27.13;44.32
43153;BME280;28756;49.064;9.290;2022-08-01T10:50:51;99030.41;;;27.06;44.40
43153;BME280;28756;49.064;9.290;2022-08-01T10:53:20;99043.09;;;27.25;44.39
43153;BME280;28756;49.064;9.290;2022-08-01T10:55:59;99046.00;;;26.29;45.38
43153;BME280;28756;49.064;9.290;2022-08-01T11:03:41;99039.72;;;26.37;46.83
43153;BME280;28756;49.064;9.290;2022-08-01T11:06:16;99042.72;;;25.97;47.57
43153;BME280;28756;49.064;9.290;2022-08-01T11:08:51;99046.00;;;25.69;47.23
43153;BME280;28756;49.064;9.290;2022-08-01T11:11:18;99056.13;;;25.35;48.29
43153;BME280;28756;49.064;9.290;2022-08-01T11:14:07;99043.63;;;25.44;48.54
43153;BME280;28756;49.064;9.290;2022-08-01T11:16:51;99046.53;;;25.11;49.03
43153;BME280;28756;49.064;9.290;2022-08-01T11:19:17;99043.84;;;25.73;46.76
43153;BME280;28756;49.064;9.290;2022-08-01T11:27:29;99012.31;;;27.93;41.79
43153;BME280;28756;49.064;9.290;2022-08-01T11:32:51;99009.78;;;28.20;43.01
43153;BME280;28756;49.064;9.290;2022-08-01T11:35:18;99014.41;;;27.63;43.73
43153;BME280;28756;49.064;9.290;2022-08-01T11:37:46;99010.06;;;27.97;42.45
43153;BME280;28756;49.064;9.290;2022-08-01T11:40:24;99008.97;;;27.21;43.83
43153;BME280;28756;49.064;9.290;2022-08-01T11:45:52;99008.47;;;26.67;45.29
43153;BME280;28756;49.064;9.290;2022-08-01T11:48:23;99013.72;;;26.39;45.65
43153;BME280;28756;49.064;9.290;2022-08-01T11:50:55;99008.72;;;26.51;45.54
43153;BME280;28756;49.064;9.290;2022-08-01T11:53:21;99007.59;;;26.60;44.89
43153;BME280;28756;49.064;9.290;2022-08-01T11:55:50;99015.63;;;26.82;44.07
43153;BME280;28756;49.064;9.290;2022-08-01T11:58:22;99006.84;;;27.09;43.93
43153;BME280;28756;49.064;9.290;2022-08-01T12:00:53;99002.75;;;27.14;44.42
43153;BME280;28756;49.064;9.290;2022-08-01T12:03:29;99002.41;;;26.95;43.51
43153;BME280;28756;49.064;9.290;2022-08-01T12:05:55;98994.25;;;27.60;42.69
43153;BME280;28756;49.064;9.290;2022-08-01T12:08:30;98977.78;;;27.98;42.90
43153;BME280;28756;49.064;9.290;2022-08-01T12:11:03;98981.63;;;28.37;40.34
43153;BME280;28756;49.064;9.290;2022-08-01T12:13:40;98972.47;;;29.07;40.16
43153;BME280;28756;49.064;9.290;2022-08-01T12:16:09;98963.38;;;29.42;39.85
43153;BME280;28756;49.064;9.290;2022-08-01T12:18:42;98958.19;;;29.60;40.10
43153;BME280;28756;49.064;9.290;2022-08-01T12:21:08;98963.38;;;28.61;40.69
43153;BME280;28756;49.064;9.290;2022-08-01T12:23:33;98970.59;;;28.94;40.39
43153;BME280;28756;49.064;9.290;2022-08-01T12:25:59;98965.13;;;28.14;42.04
43153;BME280;28756;49.064;9.290;2022-08-01T12:28:27;98974.97;;;27.58;42.26
43153;BME280;28756;49.064;9.290;2022-08-01T12:30:52;98967.78;;;28.07;42.40
43153;BME280;28756;49.064;9.290;2022-08-01T12:33:20;98960.69;;;28.48;40.49
43153;BME280;28756;49.064;9.290;2022-08-01T12:35:47;98961.06;;;28.25;42.00
43153;BME280;28756;49.064;9.290;2022-08-01T12:38:21;98969.16;;;28.03;40.47
43153;BME280;28756;49.064;9.290;2022-08-01T12:40:49;98968.25;;;28.17;40.76
43153;BME280;28756;49.064;9.290;2022-08-01T12:43:21;98966.72;;;28.70;40.35
43153;BME280;28756;49.064;9.290;2022-08-01T12:45:50;98965.19;;;28.41;39.87
43153;BME280;28756;49.064;9.290;2022-08-01T12:48:17;98956.78;;;28.50;41.14
43153;BME280;28756;49.064;9.290;2022-08-01T12:50:50;98956.78;;;29.24;39.32
43153;BME280;28756;49.064;9.290;2022-08-01T12:53:17;98952.06;;;29.33;39.32
43153;BME280;28756;49.064;9.290;2022-08-01T12:55:49;98959.09;;;28.87;38.82
43153;BME280;28756;49.064;9.290;2022-08-01T12:58:17;98959.53;;;28.84;39.05
43153;BME280;28756;49.064;9.290;2022-08-01T13:00:46;98953.75;;;28.74;40.25
43153;BME280;28756;49.064;9.290;2022-08-01T13:03:19;98951.69;;;29.16;39.53
43153;BME280;28756;49.064;9.290;2022-08-01T13:05:51;98946.28;;;29.50;38.88
43153;BME280;28756;49.064;9.290;2022-08-01T13:08:32;98944.16;;;29.58;38.56
43153;BME280;28756;49.064;9.290;2022-08-01T13:11:13;98945.09;;;28.78;39.04
43153;BME280;28756;49.064;9.290;2022-08-01T13:16:18;98954.34;;;29.03;38.96
43153;BME280;28756;49.064;9.290;2022-08-01T13:18:54;98952.09;;;28.86;40.36
43153;BME280;28756;49.064;9.290;2022-08-01T13:21:25;98942.56;;;28.36;40.21
43153;BME280;28756;49.064;9.290;2022-08-01T13:24:09;98947.28;;;28.28;41.29
43153;BME280;28756;49.064;9.290;2022-08-01T13:26:52;98945.31;;;28.90;40.49
43153;BME280;28756;49.064;9.290;2022-08-01T13:29:39;98947.03;;;28.16;40.70
43153;BME280;28756;49.064;9.290;2022-08-01T13:32:21;98950.78;;;27.38;42.61
43153;BME280;28756;49.064;9.290;2022-08-01T13:34:47;98949.88;;;27.24;41.98
43153;BME280;28756;49.064;9.290;2022-08-01T13:37:13;98946.22;;;28.15;41.69
43153;BME280;28756;49.064;9.290;2022-08-01T13:39:38;98944.56;;;28.14;41.98
43153;BME280;28756;49.064;9.290;2022-08-01T13:42:12;98942.59;;;27.81;42.09
43153;BME280;28756;49.064;9.290;2022-08-01T13:44:38;98952.97;;;26.99;43.64
43153;BME280;28756;49.064;9.290;2022-08-01T13:47:05;98937.31;;;27.53;43.66
43153;BME280;28756;49.064;9.290;2022-08-01T13:49:31;98941.69;;;27.61;42.35